Time;durP1;ratioP1;P1;durP2;ratioP2;P2;SDS_P1;SDS_P2;PMS_P1;PMS_P2;Temp;Humidity;BMP_temperature;BMP_pressure;BME280_temperature;BME280_humidity;BME280_pressure;Samples;Min_cycle;Max_cycle;Signal;HPM_P1;HPM_P2
2022/01/12 00:00:52;;;;;;;111.57;41.17;;;3.50;99.90;;;;;;5026020;28;20369;-37
2022/01/12 00:03:18;;;;;;;100.50;42.07;;;3.60;99.90;;;;;;5024312;28;20140;-37
2022/01/12 00:05:44;;;;;;;109.73;42.10;;;3.60;99.90;;;;;;5023954;28;20103;-36
2022/01/12 00:08:10;;;;;;;115.57;43.50;;;3.60;99.90;;;;;;5012267;28;20049;-37
2022/01/12 00:10:38;;;;;;;99.53;41.13;;;3.60;99.90;;;;;;5024874;28;20088;-37
2022/01/12 00:13:03;;;;;;;100.33;41.03;;;3.60;99.90;;;;;;5023961;28;20081;-38
2022/01/12 00:15:29;;;;;;;120.70;44.30;;;3.60;99.90;;;;;;5024900;28;20498;-37
2022/01/12 00:17:55;;;;;;;116.93;42.97;;;3.70;99.90;;;;;;5017273;28;20110;-37
2022/01/12 00:20:20;;;;;;;121.93;43.57;;;3.70;99.90;;;;;;5024554;28;20037;-37
2022/01/12 00:22:46;;;;;;;107.87;43.13;;;3.70;99.90;;;;;;5040747;28;20054;-37
2022/01/12 00:25:26;;;;;;;118.07;43.50;;;3.70;99.90;;;;;;5022972;28;20145;-38
2022/01/12 00:33:22;;;;;;;133.30;44.00;;;3.70;99.90;;;;;;5027677;28;20043;-37
2022/01/12 00:35:53;;;;;;;115.70;42.83;;;3.70;99.90;;;;;;5036058;28;20084;-38
2022/01/12 00:38:21;;;;;;;120.70;41.92;;;3.80;99.90;;;;;;5013622;28;20398;-37
2022/01/12 00:40:52;;;;;;;115.97;42.37;;;3.70;99.90;;;;;;5028217;28;20053;-37
2022/01/12 00:43:20;;;;;;;141.73;42.92;;;3.70;99.90;;;;;;5042488;28;20382;-37
2022/01/12 00:45:46;;;;;;;135.33;44.33;;;3.70;99.90;;;;;;5026715;28;20401;-37
2022/01/12 00:48:17;;;;;;;138.27;42.67;;;3.80;99.90;;;;;;5013375;28;20060;-38
2022/01/12 00:50:43;;;;;;;158.30;46.63;;;3.80;99.90;;;;;;5029358;28;20392;-38
2022/01/12 00:53:10;;;;;;;127.30;44.67;;;3.70;99.90;;;;;;5027389;28;20037;-38
2022/01/12 00:55:38;;;;;;;134.67;43.57;;;3.80;99.90;;;;;;5026251;28;20440;-38
2022/01/12 00:58:04;;;;;;;145.67;44.23;;;3.80;99.90;;;;;;5017430;28;20045;-36
2022/01/12 01:00:31;;;;;;;140.47;45.60;;;3.70;99.90;;;;;;5029522;28;20045;-37
2022/01/12 01:02:57;;;;;;;138.10;43.97;;;3.80;99.90;;;;;;5027090;28;20037;-38
2022/01/12 01:05:26;;;;;;;123.97;41.97;;;3.80;99.90;;;;;;5044006;28;20045;-37
2022/01/12 01:07:52;;;;;;;124.20;43.57;;;3.80;99.90;;;;;;5012919;28;20045;-37
2022/01/12 01:10:33;;;;;;;145.17;44.17;;;3.80;99.90;;;;;;5026340;28;20050;-37
2022/01/12 01:12:59;;;;;;;138.65;42.95;;;3.80;99.90;;;;;;5027018;28;20137;-37
2022/01/12 01:15:51;;;;;;;119.73;42.57;;;3.80;99.90;;;;;;5027671;28;20081;-36
2022/01/12 01:26:28;;;;;;;146.20;44.20;;;3.90;99.90;;;;;;5017379;28;20056;-37
2022/01/12 01:28:54;;;;;;;130.40;43.23;;;3.90;99.90;;;;;;5029272;28;20045;-37
2022/01/12 01:31:21;;;;;;;129.23;42.93;;;3.90;99.90;;;;;;5033115;28;20072;-37
2022/01/12 01:33:47;;;;;;;118.43;41.60;;;3.90;99.90;;;;;;5041439;28;20056;-37
2022/01/12 01:36:15;;;;;;;105.80;40.57;;;3.90;99.90;;;;;;5028738;28;20049;-37
2022/01/12 01:38:41;;;;;;;114.93;39.27;;;3.90;99.90;;;;;;5023208;28;20582;-38
2022/01/12 01:41:06;;;;;;;99.97;39.43;;;3.90;99.90;;;;;;5042255;28;20037;-37
2022/01/12 01:54:14;;;;;;;92.77;37.37;;;3.90;99.90;;;;;;5026230;28;20057;-37
2022/01/12 01:56:40;;;;;;;101.63;38.03;;;3.90;99.90;;;;;;5015570;28;20045;-37
2022/01/12 01:59:07;;;;;;;108.00;37.47;;;4.00;99.90;;;;;;5025557;28;20068;-37
2022/01/12 02:01:33;;;;;;;103.67;38.00;;;4.10;99.90;;;;;;5046050;28;20128;-38
2022/01/12 02:04:02;;;;;;;91.47;36.33;;;4.00;99.90;;;;;;5030211;28;20069;-38
2022/01/12 02:06:29;;;;;;;100.23;37.90;;;4.00;99.90;;;;;;5015249;28;20664;-37
2022/01/12 02:08:55;;;;;;;103.53;38.77;;;4.00;99.90;;;;;;5022712;28;20492;-37
2022/01/12 02:11:25;;;;;;;107.97;36.93;;;4.00;99.90;;;;;;5026836;28;20048;-38
2022/01/12 02:13:51;;;;;;;95.50;37.17;;;4.00;99.90;;;;;;5025646;28;20179;-38
2022/01/12 02:16:21;;;;;;;99.43;38.00;;;4.00;99.90;;;;;;5016794;28;20553;-38
2022/01/12 02:40:56;;;;;;;79.13;34.03;;;4.10;99.90;;;;;;5025894;28;20048;-37
2022/01/12 02:53:52;;;;;;;86.13;34.70;;;4.10;99.90;;;;;;5024703;28;20061;-38
2022/01/12 02:56:27;;;;;;;82.17;35.93;;;4.10;99.90;;;;;;5016325;28;20548;-38
2022/01/12 02:58:53;;;;;;;84.67;35.87;;;4.20;99.90;;;;;;5021795;28;20041;-38
2022/01/12 03:03:51;;;;;;;86.90;34.60;;;4.10;99.90;;;;;;5028786;28;20583;-37
2022/01/12 03:06:21;;;;;;;86.13;34.30;;;4.40;99.90;;;;;;5018325;28;20388;-37
2022/01/12 03:08:47;;;;;;;79.87;33.30;;;4.10;99.90;;;;;;5025627;28;20457;-37
2022/01/12 03:11:16;;;;;;;75.10;33.57;;;4.00;99.90;;;;;;5028656;28;20033;-37
2022/01/12 03:13:42;;;;;;;73.60;32.77;;;4.00;99.90;;;;;;5024630;28;20057;-38
2022/01/12 03:16:20;;;;;;;74.37;30.83;;;4.00;99.90;;;;;;5019131;28;20033;-38
2022/01/12 03:18:49;;;;;;;68.60;31.10;;;4.20;99.90;;;;;;5038947;28;20463;-37
2022/01/12 03:21:17;;;;;;;63.87;29.97;;;3.90;99.90;;;;;;5025252;28;20041;-37
2022/01/12 03:23:42;;;;;;;67.83;29.77;;;3.90;99.90;;;;;;5027042;28;20064;-37
2022/01/12 03:26:09;;;;;;;62.90;29.47;;;3.90;99.90;;;;;;5018247;28;20061;-38
2022/01/12 03:28:37;;;;;;;71.37;30.13;;;3.90;99.90;;;;;;5017028;28;20265;-37
2022/01/12 03:39:03;;;;;;;63.43;27.10;;;3.70;99.90;;;;;;5027722;28;20061;-37
2022/01/12 03:41:32;;;;;;;53.87;26.20;;;3.70;99.90;;;;;;5024867;28;20127;-37
2022/01/12 03:43:59;;;;;;;65.53;26.70;;;3.70;99.90;;;;;;5024210;28;20041;-38
2022/01/12 03:46:30;;;;;;;62.10;26.57;;;3.70;99.90;;;;;;5014889;28;20501;-37
2022/01/12 03:48:56;;;;;;;61.95;26.88;;;3.70;99.90;;;;;;5021412;28;20050;-37
2022/01/12 03:51:22;;;;;;;58.77;25.13;;;3.60;99.90;;;;;;5024556;28;20092;-37
2022/01/12 03:53:48;;;;;;;58.33;24.97;;;3.60;99.90;;;;;;5022643;28;20073;-37
2022/01/12 03:56:14;;;;;;;56.23;25.10;;;3.60;99.90;;;;;;5016425;28;20048;-38
2022/01/12 03:58:41;;;;;;;57.37;25.10;;;3.60;99.90;;;;;;5022585;28;20095;-37
2022/01/12 04:01:07;;;;;;;58.33;25.43;;;3.60;99.90;;;;;;5043071;28;20124;-38
2022/01/12 04:03:39;;;;;;;55.13;24.93;;;3.50;99.90;;;;;;5028069;28;20057;-37
2022/01/12 04:08:48;;;;;;;55.07;24.00;;;3.40;99.90;;;;;;5025326;28;20535;-37
2022/01/12 04:11:14;;;;;;;53.67;22.90;;;3.40;99.90;;;;;;5029543;28;20037;-36
2022/01/12 04:13:42;;;;;;;53.43;22.77;;;3.40;99.90;;;;;;5026430;28;20056;-37
2022/01/12 04:16:08;;;;;;;54.93;23.07;;;3.40;99.90;;;;;;5026547;28;20092;-38
2022/01/12 04:18:35;;;;;;;49.43;22.97;;;3.30;99.90;;;;;;5005901;28;20119;-37
2022/01/12 04:21:03;;;;;;;50.47;22.70;;;3.30;99.90;;;;;;5028595;28;20412;-35
2022/01/12 04:23:30;;;;;;;58.80;23.40;;;3.30;99.90;;;;;;5045751;28;20053;-38
2022/01/12 04:26:01;;;;;;;49.90;21.73;;;3.30;99.90;;;;;;5028364;28;20052;-36
2022/01/12 04:28:29;;;;;;;53.35;21.05;;;3.30;99.90;;;;;;5015580;28;20042;-37
2022/01/12 04:30:56;;;;;;;54.97;22.80;;;3.30;99.90;;;;;;5032028;28;20138;-36
2022/01/12 04:33:22;;;;;;;51.30;22.73;;;3.30;99.90;;;;;;5026009;28;20048;-37
2022/01/12 04:35:54;;;;;;;53.70;23.47;;;3.30;99.90;;;;;;5028725;28;20572;-37
2022/01/12 04:38:22;;;;;;;49.20;22.60;;;3.30;99.90;;;;;;5015491;28;20167;-38
2022/01/12 04:40:49;;;;;;;54.50;21.83;;;3.20;99.90;;;;;;5031329;28;20045;-36
2022/01/12 04:43:16;;;;;;;52.40;22.33;;;3.20;99.90;;;;;;5031408;28;20479;-38
2022/01/12 04:50:50;;;;;;;51.58;21.20;;;3.20;99.90;;;;;;5028413;28;20052;-36
2022/01/12 04:53:18;;;;;;;52.43;19.73;;;3.20;99.90;;;;;;5027300;28;20497;-37
2022/01/12 04:55:45;;;;;;;44.00;18.70;;;3.10;99.90;;;;;;5027815;28;20492;-38
2022/01/12 04:58:11;;;;;;;43.80;19.67;;;3.10;99.90;;;;;;5015274;28;20099;-37
2022/01/12 05:00:38;;;;;;;48.30;20.13;;;3.10;99.90;;;;;;5029926;28;20451;-37
2022/01/12 05:13:49;;;;;;;51.20;18.03;;;3.00;99.90;;;;;;5026966;28;20416;-36
2022/01/12 05:16:15;;;;;;;42.13;17.80;;;3.00;99.90;;;;;;5018795;28;20049;-37
2022/01/12 05:18:42;;;;;;;40.17;16.50;;;3.00;99.90;;;;;;5024366;28;20050;-37
2022/01/12 05:21:09;;;;;;;35.40;16.00;;;2.90;99.90;;;;;;5027091;28;20053;-36
2022/01/12 05:23:35;;;;;;;39.83;17.23;;;2.90;99.90;;;;;;5027057;28;20390;-37
2022/01/12 05:26:02;;;;;;;37.93;15.63;;;2.90;99.90;;;;;;5027232;28;20046;-37
2022/01/12 05:28:28;;;;;;;39.27;16.40;;;2.90;99.90;;;;;;5012581;28;20225;-36
2022/01/12 05:30:55;;;;;;;52.97;16.07;;;2.90;99.90;;;;;;5029466;28;20481;-37
2022/01/12 05:33:23;;;;;;;63.97;16.50;;;2.90;99.90;;;;;;5026464;28;20314;-37
2022/01/12 05:35:50;;;;;;;74.17;15.87;;;2.90;99.90;;;;;;5028131;28;20102;-33
2022/01/12 05:38:16;;;;;;;75.27;15.63;;;2.90;99.90;;;;;;5018003;28;20041;-36
2022/01/12 05:40:46;;;;;;;85.57;14.90;;;2.80;99.90;;;;;;5027272;28;20120;-37
2022/01/12 05:43:12;;;;;;;72.40;13.70;;;2.80;99.90;;;;;;5026011;28;20045;-37
2022/01/12 05:45:40;;;;;;;67.63;12.83;;;2.80;99.90;;;;;;5026980;28;20516;-38
2022/01/12 05:50:35;;;;;;;34.43;10.13;;;2.70;99.90;;;;;;5026773;28;20390;-37
2022/01/12 05:53:01;;;;;;;40.67;10.40;;;2.70;99.90;;;;;;5028921;28;20042;-34
2022/01/12 05:55:27;;;;;;;31.63;9.97;;;2.70;99.90;;;;;;5026863;28;20501;-37
2022/01/12 05:57:53;;;;;;;41.47;9.57;;;2.70;99.90;;;;;;5012147;28;20056;-37
2022/01/12 06:00:21;;;;;;;31.40;8.90;;;2.70;99.90;;;;;;5027305;28;20041;-37
2022/01/12 06:02:47;;;;;;;30.23;8.70;;;2.70;99.90;;;;;;5028519;28;20045;-37
2022/01/12 06:05:18;;;;;;;24.67;8.50;;;2.60;99.90;;;;;;5027540;28;20386;-38
2022/01/12 06:07:44;;;;;;;35.58;8.48;;;2.60;99.90;;;;;;5013689;28;20049;-37
2022/01/12 06:10:11;;;;;;;46.00;8.63;;;2.60;99.90;;;;;;5028852;28;20056;-38
2022/01/12 06:12:37;;;;;;;57.40;8.00;;;2.60;99.90;;;;;;5036621;28;20116;-36
2022/01/12 06:15:04;;;;;;;63.00;8.97;;;2.60;99.90;;;;;;5046637;28;20042;-38
2022/01/12 06:17:30;;;;;;;26.07;8.37;;;2.60;99.90;;;;;;5015398;28;20094;-37
2022/01/12 06:19:55;;;;;;;65.27;9.20;;;2.50;99.90;;;;;;5026407;28;20734;-38
2022/01/12 06:22:23;;;;;;;66.10;8.60;;;2.50;99.90;;;;;;5025535;28;20067;-37
2022/01/12 06:24:50;;;;;;;56.77;7.97;;;2.50;99.90;;;;;;5023785;28;20041;-37
2022/01/12 06:27:17;;;;;;;70.67;8.13;;;2.50;99.90;;;;;;5019188;28;20057;-37
2022/01/12 06:29:50;;;;;;;97.87;9.07;;;2.50;99.90;;;;;;5029225;28;20044;-35
2022/01/12 06:32:17;;;;;;;153.77;10.33;;;2.40;99.90;;;;;;5028142;28;20095;-36
2022/01/12 06:34:42;;;;;;;105.67;9.50;;;2.40;99.90;;;;;;5029428;28;20437;-37
2022/01/12 06:37:08;;;;;;;115.67;9.63;;;2.40;99.90;;;;;;5018699;28;20037;-37
2022/01/12 06:39:34;;;;;;;95.73;9.30;;;2.40;99.90;;;;;;5031626;28;20049;-37
2022/01/12 06:42:00;;;;;;;66.93;8.57;;;2.40;99.90;;;;;;5028365;28;20515;-37
2022/01/12 06:44:26;;;;;;;41.27;7.47;;;2.30;99.90;;;;;;5024912;28;20045;-36
2022/01/12 06:46:53;;;;;;;81.27;8.70;;;2.30;99.90;;;;;;5011947;28;20037;-36
2022/01/12 06:49:19;;;;;;;97.73;8.20;;;3.00;99.90;;;;;;5041975;28;20045;-35
2022/01/12 06:51:46;;;;;;;127.70;8.77;;;2.30;99.90;;;;;;5025921;28;20099;-37
2022/01/12 06:54:14;;;;;;;180.30;9.07;;;2.20;99.90;;;;;;5007069;28;20558;-37
2022/01/12 06:56:39;;;;;;;128.53;9.07;;;2.20;99.90;;;;;;5013649;28;20120;-38
2022/01/12 06:59:06;;;;;;;128.53;8.67;;;2.20;99.90;;;;;;5022046;28;20038;-36
2022/01/12 07:01:32;;;;;;;107.83;7.97;;;2.10;99.90;;;;;;5027354;28;20129;-37
2022/01/12 07:03:58;;;;;;;86.73;7.80;;;2.00;99.90;;;;;;5025209;28;20593;-37
2022/01/12 07:06:23;;;;;;;72.77;6.87;;;2.00;99.90;;;;;;5015006;28;20033;-37
2022/01/12 07:08:49;;;;;;;76.73;6.60;;;2.00;99.90;;;;;;5022223;28;20124;-37
2022/01/12 07:11:15;;;;;;;42.60;6.10;;;1.90;99.90;;;;;;5026579;28;20033;-38
2022/01/12 07:13:41;;;;;;;50.87;6.27;;;1.90;99.90;;;;;;5024754;28;20049;-37
2022/01/12 07:16:06;;;;;;;29.53;6.20;;;1.80;99.90;;;;;;5020737;28;20033;-38
2022/01/12 07:18:32;;;;;;;41.57;6.23;;;1.70;99.90;;;;;;5018663;28;20065;-38
2022/01/12 07:20:58;;;;;;;27.47;6.57;;;1.80;99.90;;;;;;5025190;28;20049;-38
2022/01/12 07:23:25;;;;;;;25.00;6.63;;;1.70;99.90;;;;;;5032304;28;20051;-37
2022/01/12 07:25:52;;;;;;;31.83;6.80;;;1.70;99.90;;;;;;5023068;28;20061;-35
2022/01/12 07:28:18;;;;;;;44.50;6.90;;;1.60;99.90;;;;;;5010189;28;20562;-35
2022/01/12 07:30:44;;;;;;;74.30;7.80;;;1.60;99.90;;;;;;5027604;28;20033;-37
2022/01/12 07:33:11;;;;;;;76.33;8.17;;;1.60;99.90;;;;;;5022876;28;20516;-37
2022/01/12 07:35:36;;;;;;;137.57;9.90;;;1.50;99.90;;;;;;5037797;28;20053;-36
2022/01/12 07:38:03;;;;;;;198.57;13.63;;;1.50;99.90;;;;;;5008692;28;20149;-37
2022/01/12 07:40:29;;;;;;;101.67;10.13;;;1.50;99.90;;;;;;5024254;28;20053;-37
2022/01/12 07:42:55;;;;;;;73.60;8.93;;;1.40;99.90;;;;;;5038758;28;20098;-35
2022/01/12 07:45:21;;;;;;;49.67;8.63;;;1.40;99.90;;;;;;5024067;28;20047;-37
2022/01/12 07:47:47;;;;;;;41.70;8.07;;;1.40;99.90;;;;;;5011891;28;20053;-37
2022/01/12 07:50:14;;;;;;;30.67;7.40;;;1.30;99.90;;;;;;5040324;28;20446;-36
2022/01/12 07:52:39;;;;;;;35.40;7.53;;;1.30;99.90;;;;;;5023039;28;20556;-36
2022/01/12 07:55:06;;;;;;;32.83;7.20;;;1.20;99.90;;;;;;5023698;28;20060;-37
2022/01/12 07:57:32;;;;;;;24.17;6.73;;;1.20;99.90;;;;;;5011498;28;20457;-37
2022/01/12 07:59:58;;;;;;;39.40;7.10;;;1.10;99.90;;;;;;5024656;28;20126;-37
2022/01/12 08:02:24;;;;;;;27.13;6.87;;;1.00;99.90;;;;;;5025056;28;20124;-36
2022/01/12 08:04:50;;;;;;;31.43;6.40;;;1.00;99.90;;;;;;5019969;28;20081;-37
2022/01/12 08:07:15;;;;;;;28.23;6.83;;;0.90;99.90;;;;;;5012928;28;20128;-37
2022/01/12 08:09:42;;;;;;;25.13;6.13;;;0.90;99.90;;;;;;5028566;28;20080;-37
2022/01/12 08:12:08;;;;;;;19.50;6.10;;;0.90;99.90;;;;;;5027782;28;20052;-37
2022/01/12 08:14:34;;;;;;;14.67;6.03;;;0.80;99.90;;;;;;5028667;28;20037;-36
2022/01/12 08:17:01;;;;;;;25.90;6.53;;;0.80;99.90;;;;;;5013929;28;20049;-37
2022/01/12 08:19:28;;;;;;;15.27;6.07;;;0.80;99.90;;;;;;5030917;28;20060;-37
2022/01/12 08:21:54;;;;;;;20.43;6.10;;;0.80;99.90;;;;;;5032477;28;20511;-36
2022/01/12 08:24:20;;;;;;;30.80;6.53;;;0.70;99.90;;;;;;5030056;28;20084;-37
2022/01/12 08:26:46;;;;;;;34.33;6.57;;;0.70;99.90;;;;;;5019873;28;20089;-37
2022/01/12 08:29:15;;;;;;;18.20;6.47;;;0.70;99.90;;;;;;5026960;28;20052;-37
2022/01/12 08:31:42;;;;;;;17.10;6.77;;;0.70;99.90;;;;;;5035618;28;20559;-37
2022/01/12 08:34:10;;;;;;;19.27;6.07;;;0.70;99.90;;;;;;5032868;28;20045;-37
2022/01/12 08:36:37;;;;;;;23.23;6.57;;;0.70;99.90;;;;;;5019733;28;20037;-36
2022/01/12 08:39:03;;;;;;;19.50;5.80;;;0.70;99.90;;;;;;5025592;28;20056;-36
2022/01/12 08:41:29;;;;;;;22.03;5.87;;;0.60;99.90;;;;;;5028382;28;20138;-37
2022/01/12 08:43:54;;;;;;;24.07;6.50;;;0.70;99.90;;;;;;5024890;28;20139;-37
2022/01/12 08:46:20;;;;;;;19.23;6.50;;;0.70;99.90;;;;;;5021521;28;20052;-37
2022/01/12 08:48:46;;;;;;;12.27;6.37;;;0.70;99.90;;;;;;5032760;28;20041;-37
2022/01/12 08:51:12;;;;;;;12.63;6.07;;;0.70;99.90;;;;;;5034764;28;20184;-34
2022/01/12 08:53:38;;;;;;;16.50;6.37;;;0.70;99.90;;;;;;5034241;28;20159;-37
2022/01/12 08:56:04;;;;;;;22.90;6.50;;;0.70;99.90;;;;;;5034563;28;20077;-37
2022/01/12 08:58:29;;;;;;;29.30;7.03;;;0.70;99.90;;;;;;5021890;28;20153;-37
2022/01/12 09:01:00;;;;;;;29.70;7.30;;;0.70;99.90;;;;;;5036259;28;20120;-37
2022/01/12 09:03:25;;;;;;;40.47;7.07;;;0.70;99.90;;;;;;5032657;28;20045;-36
2022/01/12 09:05:51;;;;;;;28.77;8.03;;;0.70;99.90;;;;;;5036877;28;20063;-37
2022/01/12 09:08:17;;;;;;;47.47;7.93;;;0.70;99.90;;;;;;5019703;28;20099;-37
2022/01/12 09:10:42;;;;;;;60.73;8.10;;;0.70;99.90;;;;;;5034975;28;20053;-37
2022/01/12 09:13:08;;;;;;;31.83;7.63;;;0.70;99.90;;;;;;5034847;28;20056;-38
2022/01/12 09:15:34;;;;;;;49.23;7.23;;;0.70;99.90;;;;;;5039216;28;20061;-36
2022/01/12 09:17:59;;;;;;;40.17;7.03;;;0.70;99.90;;;;;;5017692;28;20425;-37
2022/01/12 09:20:26;;;;;;;35.40;7.27;;;0.70;99.90;;;;;;5049056;28;20049;-37
2022/01/12 09:22:52;;;;;;;32.93;7.03;;;0.70;99.90;;;;;;5032952;28;20507;-36
2022/01/12 09:25:18;;;;;;;38.17;7.57;;;0.70;99.90;;;;;;5028995;28;20045;-36
2022/01/12 09:27:44;;;;;;;33.90;7.60;;;0.70;99.90;;;;;;5016171;28;20654;-37
2022/01/12 09:30:11;;;;;;;23.60;7.83;;;0.70;99.90;;;;;;5012744;28;20057;-37
2022/01/12 09:32:38;;;;;;;31.20;7.10;;;0.70;99.90;;;;;;5033604;28;20037;-36
2022/01/12 09:35:04;;;;;;;23.60;6.50;;;0.80;99.90;;;;;;5032213;28;20080;-37
2022/01/12 09:37:30;;;;;;;39.73;6.87;;;0.80;99.90;;;;;;5023626;28;20409;-36
2022/01/12 09:39:56;;;;;;;39.77;7.30;;;0.80;99.90;;;;;;5034872;28;20044;-35
2022/01/12 09:42:22;;;;;;;42.23;7.17;;;0.80;99.90;;;;;;5031701;28;20689;-36
2022/01/12 09:44:48;;;;;;;45.17;6.83;;;0.80;99.90;;;;;;5037756;28;20049;-36
2022/01/12 09:47:16;;;;;;;51.23;8.13;;;0.80;99.90;;;;;;5024055;28;20045;-37
2022/01/12 09:49:43;;;;;;;63.67;7.33;;;0.80;99.90;;;;;;5031251;28;20115;-36
2022/01/12 09:52:09;;;;;;;48.50;7.50;;;0.80;99.90;;;;;;5034582;28;20038;-37
2022/01/12 09:54:36;;;;;;;42.83;7.20;;;0.80;99.90;;;;;;5035937;28;20059;-37
2022/01/12 09:57:03;;;;;;;55.40;8.07;;;0.80;99.90;;;;;;5019285;28;20091;-36
2022/01/12 09:59:30;;;;;;;62.57;7.97;;;0.90;99.90;;;;;;5034718;28;20041;-37
2022/01/12 10:01:57;;;;;;;65.67;8.50;;;1.00;99.90;;;;;;5021192;28;20186;-37
2022/01/12 10:04:25;;;;;;;53.03;7.33;;;1.00;99.90;;;;;;5037153;28;20052;-35
2022/01/12 10:06:53;;;;;;;52.97;8.27;;;1.00;99.90;;;;;;5023494;28;20131;-37
2022/01/12 10:09:34;;;;;;;49.57;7.57;;;1.10;99.90;;;;;;5037981;28;20084;-36
2022/01/12 10:12:04;;;;;;;51.53;7.23;;;1.10;99.90;;;;;;5037572;28;20045;-37
2022/01/12 10:14:54;;;;;;;57.77;7.50;;;1.20;99.90;;;;;;5033473;28;20052;-36
2022/01/12 10:17:33;;;;;;;51.87;7.93;;;1.20;99.90;;;;;;5020948;28;20052;-37
2022/01/12 10:20:06;;;;;;;41.20;7.47;;;1.30;99.90;;;;;;5036538;28;20048;-37
2022/01/12 10:22:32;;;;;;;41.90;7.50;;;1.30;99.90;;;;;;5032904;28;20059;-37
2022/01/12 10:25:01;;;;;;;38.07;7.50;;;1.40;99.90;;;;;;5034581;28;20500;-37
2022/01/12 10:27:28;;;;;;;31.23;6.97;;;1.50;99.90;;;;;;5022314;28;20055;-36
2022/01/12 10:30:01;;;;;;;33.10;7.93;;;1.50;99.90;;;;;;5038993;28;20059;-34
2022/01/12 10:32:27;;;;;;;36.13;7.93;;;1.50;99.90;;;;;;5033734;28;20045;-37
2022/01/12 10:34:52;;;;;;;50.23;8.80;;;1.60;99.90;;;;;;5036329;28;20057;-37
2022/01/12 10:37:22;;;;;;;60.37;8.40;;;1.60;99.90;;;;;;5023478;28;20045;-37
2022/01/12 10:39:53;;;;;;;44.37;8.67;;;1.70;99.90;;;;;;5036640;28;20052;-37
2022/01/12 10:42:29;;;;;;;43.20;7.40;;;1.80;99.90;;;;;;5035445;28;20040;-36
2022/01/12 10:45:04;;;;;;;52.43;9.80;;;1.80;99.90;;;;;;5033676;28;20056;-36
2022/01/12 10:47:32;;;;;;;53.30;10.23;;;1.90;99.90;;;;;;5021981;28;20052;-35
2022/01/12 10:50:10;;;;;;;79.53;11.10;;;2.00;99.90;;;;;;5035845;28;20045;-37
2022/01/12 10:52:49;;;;;;;44.93;9.37;;;2.10;99.90;;;;;;5035612;28;20102;-37
2022/01/12 10:55:17;;;;;;;53.13;10.73;;;2.20;99.90;;;;;;5036377;28;20397;-37
2022/01/12 10:57:45;;;;;;;52.00;10.10;;;2.20;99.90;;;;;;5020610;28;20450;-37
2022/01/12 11:00:18;;;;;;;60.13;11.93;;;2.30;99.90;;;;;;5039944;28;20106;-37
2022/01/12 11:02:45;;;;;;;75.50;12.13;;;2.40;99.90;;;;;;5034188;28;20044;-37
2022/01/12 11:05:11;;;;;;;45.40;11.43;;;2.50;99.90;;;;;;5034844;28;20059;-38
2022/01/12 11:07:37;;;;;;;54.73;12.20;;;2.60;99.90;;;;;;5020150;28;20053;-36
2022/01/12 11:10:06;;;;;;;63.23;12.83;;;2.70;99.90;;;;;;5034269;28;20436;-38
2022/01/12 11:12:34;;;;;;;50.17;12.77;;;2.80;99.90;;;;;;5031988;28;20045;-37
2022/01/12 11:14:59;;;;;;;50.13;12.50;;;2.80;99.90;;;;;;5031862;28;20099;-37
2022/01/12 11:17:25;;;;;;;52.87;12.67;;;2.90;99.90;;;;;;5018435;28;20119;-37
2022/01/12 11:19:50;;;;;;;58.23;13.40;;;3.00;99.90;;;;;;5032381;28;20392;-37
2022/01/12 11:22:44;;;;;;;58.27;14.40;;;3.10;99.90;;;;;;5031387;28;20404;-38
2022/01/12 11:25:30;;;;;;;69.97;15.23;;;3.20;99.90;;;;;;5051004;28;20056;-36
2022/01/12 11:28:19;;;;;;;59.60;15.30;;;3.30;99.90;;;;;;5014895;28;20038;-37
2022/01/12 11:30:50;;;;;;;70.57;16.67;;;3.40;99.90;;;;;;5034580;28;20528;-37
2022/01/12 11:33:17;;;;;;;;;;;3.50;99.90;;;;;;5030787;28;20081;-38
2022/01/12 11:35:46;;;;;;;53.27;15.10;;;3.60;99.90;;;;;;5029063;28;20376;-36
2022/01/12 11:38:22;;;;;;;57.40;17.57;;;3.60;99.90;;;;;;5015576;28;20052;-36
2022/01/12 11:40:50;;;;;;;72.13;18.27;;;3.70;99.90;;;;;;5028487;28;20045;-37
2022/01/12 11:43:27;;;;;;;64.73;20.17;;;3.80;99.90;;;;;;5030325;28;20508;-37
2022/01/12 11:46:10;;;;;;;73.70;20.30;;;3.90;99.90;;;;;;5045595;28;20068;-38
2022/01/12 11:48:43;;;;;;;72.13;19.93;;;3.90;99.90;;;;;;5019800;28;20075;-37
2022/01/12 11:51:09;;;;;;;68.27;20.10;;;4.00;99.90;;;;;;5031166;28;20044;-37
2022/01/12 11:53:52;;;;;;;67.30;18.50;;;4.00;99.90;;;;;;5034893;28;20053;-37
2022/01/12 11:56:24;;;;;;;71.43;20.27;;;4.10;99.90;;;;;;5021042;28;20369;-37
2022/01/12 11:58:56;;;;;;;74.50;20.33;;;4.10;99.90;;;;;;5030332;28;20080;-38
2022/01/12 12:01:23;;;;;;;64.40;20.70;;;4.20;99.90;;;;;;5033937;28;20792;-37
2022/01/12 12:03:56;;;;;;;69.97;20.00;;;4.30;99.90;;;;;;5031987;28;20055;-38
2022/01/12 12:06:22;;;;;;;70.77;18.77;;;4.20;99.90;;;;;;5018358;28;20571;-37
2022/01/12 12:09:03;;;;;;;88.00;20.83;;;4.30;99.90;;;;;;5028992;28;20113;-38
2022/01/12 12:11:31;;;;;;;76.05;21.80;;;4.40;99.90;;;;;;5032437;28;20429;-37
2022/01/12 12:14:08;;;;;;;76.47;20.77;;;4.40;99.90;;;;;;5035142;28;20056;-37
2022/01/12 12:16:35;;;;;;;71.77;21.17;;;4.50;99.90;;;;;;5021114;28;20123;-37
2022/01/12 12:19:03;;;;;;;86.90;22.70;;;4.50;99.90;;;;;;5033606;28;20348;-38
2022/01/12 12:21:29;;;;;;;79.37;22.97;;;4.60;99.90;;;;;;5032470;28;20531;-38
2022/01/12 12:24:13;;;;;;;81.07;24.17;;;4.60;99.90;;;;;;5035873;28;20048;-38
2022/01/12 12:26:46;;;;;;;75.73;23.47;;;4.60;99.90;;;;;;5024594;28;20051;-37
2022/01/12 12:29:15;;;;;;;87.20;23.07;;;4.70;99.90;;;;;;5037753;28;20041;-36
2022/01/12 12:31:46;;;;;;;75.03;21.83;;;4.70;99.90;;;;;;5041115;28;20033;-38
2022/01/12 12:34:12;;;;;;;83.70;23.50;;;4.80;99.90;;;;;;5040004;28;20056;-37
2022/01/12 12:36:37;;;;;;;80.30;23.93;;;4.80;99.90;;;;;;5025942;28;20365;-38
2022/01/12 12:39:14;;;;;;;83.97;22.30;;;4.80;99.90;;;;;;5053321;28;20103;-37
2022/01/12 12:41:44;;;;;;;70.33;21.47;;;4.90;99.90;;;;;;5041133;28;20500;-38
2022/01/12 12:44:25;;;;;;;77.33;21.90;;;4.90;99.90;;;;;;5038621;28;20078;-37
2022/01/12 12:47:03;;;;;;;67.17;21.20;;;5.00;99.90;;;;;;5022023;28;20095;-38
2022/01/12 12:49:29;;;;;;;63.47;20.57;;;5.00;99.90;;;;;;5036680;28;20279;-38
2022/01/12 12:52:02;;;;;;;64.53;20.13;;;5.00;99.90;;;;;;5035467;28;20049;-37
2022/01/12 12:54:27;;;;;;;73.47;21.20;;;5.10;99.90;;;;;;5030157;28;20045;-38
2022/01/12 12:57:02;;;;;;;63.60;20.83;;;5.10;99.90;;;;;;5022290;28;20382;-38
2022/01/12 12:59:31;;;;;;;64.57;21.20;;;5.20;99.90;;;;;;5031513;28;20092;-38
2022/01/12 13:01:57;;;;;;;67.80;20.13;;;5.20;99.90;;;;;;5035584;28;20072;-37
2022/01/12 13:04:23;;;;;;;69.53;19.57;;;5.30;99.90;;;;;;5034505;28;20504;-38
2022/01/12 13:06:48;;;;;;;58.90;20.40;;;5.30;99.90;;;;;;5022080;28;20076;-37
2022/01/12 13:09:16;;;;;;;55.27;19.90;;;5.30;99.90;;;;;;5032358;28;20053;-37
2022/01/12 13:11:49;;;;;;;61.10;18.80;;;5.30;99.90;;;;;;5030572;28;20041;-38
2022/01/12 13:14:16;;;;;;;54.47;18.80;;;5.30;99.90;;;;;;5029466;28;20455;-38
2022/01/12 13:16:51;;;;;;;52.80;18.30;;;5.40;99.90;;;;;;5021530;28;20750;-38
2022/01/12 13:22:29;;;;;;;60.47;18.03;;;5.30;99.90;;;;;;5033064;28;20052;-38
2022/01/12 13:24:56;;;;;;;58.43;18.60;;;5.40;99.90;;;;;;5030280;28;20052;-37
2022/01/12 13:27:24;;;;;;;57.30;17.10;;;5.40;99.90;;;;;;5017849;28;20515;-37
2022/01/12 13:29:51;;;;;;;60.13;18.27;;;5.40;99.90;;;;;;5033485;28;20072;-37
2022/01/12 13:32:17;;;;;;;59.73;17.20;;;5.40;99.90;;;;;;5034096;28;20047;-37
2022/01/12 13:35:03;;;;;;;54.57;18.80;;;5.40;99.90;;;;;;5032101;28;20570;-37
2022/01/12 13:37:31;;;;;;;55.53;16.57;;;5.40;99.90;;;;;;5020589;28;20098;-37
2022/01/12 13:40:12;;;;;;;50.93;17.33;;;5.40;99.90;;;;;;5034478;28;20051;-38
2022/01/12 13:42:56;;;;;;;53.78;16.00;;;5.40;99.90;;;;;;5047623;28;20084;-37
2022/01/12 13:45:30;;;;;;;44.00;15.80;;;5.40;99.90;;;;;;5035954;28;20041;-38
2022/01/12 13:47:59;;;;;;;53.17;16.63;;;5.40;99.90;;;;;;5021265;28;20048;-38
2022/01/12 13:50:36;;;;;;;47.13;15.47;;;5.40;99.90;;;;;;5053014;28;20454;-37
2022/01/12 13:53:03;;;;;;;48.80;16.03;;;5.30;99.90;;;;;;5034040;28;20045;-37
2022/01/12 13:55:30;;;;;;;45.33;15.57;;;5.40;99.90;;;;;;5037289;28;20049;-37
2022/01/12 13:58:04;;;;;;;54.87;16.77;;;5.40;99.90;;;;;;5023126;28;20045;-38
2022/01/12 14:00:31;;;;;;;50.50;17.27;;;5.30;99.90;;;;;;5035222;28;20531;-38
2022/01/12 14:02:58;;;;;;;58.13;17.73;;;5.40;99.90;;;;;;5035851;28;20705;-38
2022/01/12 14:05:39;;;;;;;50.97;16.83;;;5.30;99.90;;;;;;5036586;28;20609;-37
2022/01/12 14:08:12;;;;;;;;;;;5.40;99.90;;;;;;5023134;28;20065;-38
2022/01/12 14:10:51;;;;;;;46.87;16.67;;;5.30;99.90;;;;;;5033339;28;19925;-37
2022/01/12 14:13:17;;;;;;;47.27;16.77;;;5.30;99.90;;;;;;5035444;28;20107;-36
2022/01/12 14:15:44;;;;;;;54.93;16.73;;;5.40;99.90;;;;;;5037458;28;20132;-37
2022/01/12 14:18:18;;;;;;;53.70;15.67;;;5.30;99.90;;;;;;5023131;28;20079;-36